Time;durP1;ratioP1;P1;durP2;ratioP2;P2;SDS_P1;SDS_P2;PMS_P1;PMS_P2;Temp;Humidity;BMP_temperature;BMP_pressure;BME280_temperature;BME280_humidity;BME280_pressure;Samples;Min_cycle;Max_cycle;Signal;HPM_P1;HPM_P2
2022/07/21 00:01:51;;;;;;;7.35;4.15;;;19.30;99.90;;;;;;4991843;28;20018;-75
2022/07/21 00:04:17;;;;;;;5.30;3.60;;;19.30;99.90;;;;;;4989161;28;20500;-74
2022/07/21 00:06:44;;;;;;;7.63;3.80;;;19.30;99.90;;;;;;4972744;28;20078;-74
2022/07/21 00:09:11;;;;;;;8.80;3.63;;;19.30;99.90;;;;;;4972771;28;20023;-75
2022/07/21 00:11:38;;;;;;;5.75;3.33;;;19.40;99.90;;;;;;4972173;28;20110;-74
2022/07/21 00:14:05;;;;;;;5.70;3.40;;;19.30;99.90;;;;;;4972861;28;20031;-74
2022/07/21 00:16:31;;;;;;;5.15;3.08;;;19.30;99.90;;;;;;4972422;28;20146;-75
2022/07/21 00:18:59;;;;;;;3.50;3.05;;;19.20;99.90;;;;;;4972556;28;20031;-75
2022/07/21 00:21:28;;;;;;;5.43;3.20;;;19.10;99.90;;;;;;4972309;28;20015;-75
2022/07/21 00:23:54;;;;;;;7.05;3.33;;;18.90;99.90;;;;;;4972564;28;20089;-75
2022/07/21 00:26:20;;;;;;;5.90;3.28;;;18.80;99.90;;;;;;4971732;28;20395;-75
2022/07/21 00:28:46;;;;;;;7.70;4.00;;;18.70;99.90;;;;;;4972233;28;20029;-75
2022/07/21 00:31:12;;;;;;;6.32;3.25;;;18.60;99.90;;;;;;4972466;28;20058;-75
2022/07/21 00:33:38;;;;;;;8.05;3.95;;;18.50;99.90;;;;;;4972376;28;20039;-74
2022/07/21 00:36:04;;;;;;;5.90;3.10;;;18.50;99.90;;;;;;4970831;28;20026;-74
2022/07/21 00:38:29;;;;;;;6.75;3.83;;;18.30;99.90;;;;;;4972660;28;20025;-75
2022/07/21 00:40:55;;;;;;;4.25;3.55;;;18.30;99.90;;;;;;4971786;28;20113;-74
2022/07/21 00:43:21;;;;;;;5.93;3.50;;;18.20;99.90;;;;;;4971817;28;20486;-74
2022/07/21 00:45:47;;;;;;;6.10;3.67;;;18.20;99.90;;;;;;4972189;28;20029;-75
2022/07/21 00:48:13;;;;;;;5.38;3.33;;;18.10;99.90;;;;;;4971956;28;20018;-75
2022/07/21 00:50:39;;;;;;;7.97;3.80;;;18.10;99.90;;;;;;4971780;28;20105;-74
2022/07/21 00:53:05;;;;;;;6.20;3.75;;;18.10;99.90;;;;;;4971095;28;20114;-74
2022/07/21 00:55:31;;;;;;;5.82;3.47;;;18.10;99.90;;;;;;4997715;23;20065;-78
2022/07/21 00:57:56;;;;;;;5.93;3.70;;;18.10;99.90;;;;;;5006630;28;20026;-78
2022/07/21 01:00:28;;;;;;;7.78;3.65;;;18.20;99.90;;;;;;4991529;28;20073;-78
2022/07/21 01:02:55;;;;;;;7.43;3.83;;;18.10;99.90;;;;;;4984770;28;20094;-78
2022/07/21 01:05:21;;;;;;;7.55;4.47;;;18.00;99.90;;;;;;4980613;28;20031;-78
2022/07/21 01:07:50;;;;;;;9.05;3.95;;;18.00;99.90;;;;;;4972217;28;20134;-78
2022/07/21 01:10:18;;;;;;;6.35;4.20;;;18.00;99.90;;;;;;4971922;28;20022;-78
2022/07/21 01:12:44;;;;;;;10.93;4.05;;;18.00;99.90;;;;;;4971891;28;20026;-78
2022/07/21 01:15:11;;;;;;;7.40;3.95;;;17.90;99.90;;;;;;4972268;28;20019;-78
2022/07/21 01:17:38;;;;;;;6.82;4.40;;;17.80;99.90;;;;;;4972128;28;20026;-78
2022/07/21 01:20:06;;;;;;;9.60;4.47;;;17.80;99.90;;;;;;4972377;28;20440;-78
2022/07/21 01:22:34;;;;;;;7.40;4.78;;;17.80;99.90;;;;;;4971910;28;20066;-78
2022/07/21 01:25:00;;;;;;;10.88;4.40;;;17.80;99.90;;;;;;4972099;28;20029;-78
2022/07/21 01:27:27;;;;;;;5.65;4.10;;;17.80;99.90;;;;;;4972181;28;20023;-78
2022/07/21 01:29:54;;;;;;;5.53;3.90;;;17.80;99.90;;;;;;4972164;28;20014;-78
2022/07/21 01:32:20;;;;;;;5.78;4.28;;;17.80;99.90;;;;;;4971917;28;20039;-78
2022/07/21 01:34:46;;;;;;;10.63;4.80;;;17.80;99.90;;;;;;4972149;28;20030;-78
2022/07/21 01:37:12;;;;;;;9.23;4.68;;;17.80;99.90;;;;;;4971690;28;20403;-78
2022/07/21 01:42:22;;;;;;;6.75;4.18;;;17.70;99.90;;;;;;4971973;28;20499;-78
2022/07/21 01:44:49;;;;;;;7.53;4.22;;;17.80;99.90;;;;;;4972141;28;20027;-79
2022/07/21 01:47:17;;;;;;;6.60;4.25;;;17.80;99.90;;;;;;4971814;28;20102;-78
2022/07/21 01:49:43;;;;;;;9.40;4.70;;;17.80;99.90;;;;;;4972060;28;20019;-78
2022/07/21 01:52:09;;;;;;;9.32;4.72;;;17.80;99.90;;;;;;4971014;28;20021;-78
2022/07/21 01:54:35;;;;;;;5.22;3.63;;;17.80;99.90;;;;;;4999450;23;20703;-74
2022/07/21 01:57:01;;;;;;;10.02;4.93;;;17.80;99.90;;;;;;4994872;28;20038;-75
2022/07/21 01:59:27;;;;;;;6.20;4.65;;;17.90;99.90;;;;;;4994933;28;20021;-74
2022/07/21 02:01:52;;;;;;;8.90;4.60;;;17.90;99.90;;;;;;4994626;28;20040;-75
2022/07/21 02:04:18;;;;;;;7.50;5.05;;;17.90;99.90;;;;;;4992307;28;20122;-74
2022/07/21 02:06:44;;;;;;;8.48;4.72;;;17.90;99.90;;;;;;4974928;28;20026;-74
2022/07/21 02:09:10;;;;;;;9.18;5.30;;;17.80;99.90;;;;;;4974622;28;20015;-75
2022/07/21 02:11:37;;;;;;;9.57;5.20;;;17.80;99.90;;;;;;4974872;28;20031;-75
2022/07/21 02:14:03;;;;;;;7.22;5.32;;;17.80;99.90;;;;;;4974005;28;20387;-74
2022/07/21 02:16:29;;;;;;;8.38;5.30;;;17.90;99.90;;;;;;4975366;28;20019;-75
2022/07/21 02:18:55;;;;;;;11.82;5.18;;;17.90;99.90;;;;;;4975073;28;20026;-74
2022/07/21 02:21:20;;;;;;;7.15;4.50;;;17.80;99.90;;;;;;4975225;28;20022;-74
2022/07/21 02:23:46;;;;;;;6.80;4.97;;;17.80;99.90;;;;;;4974959;28;20023;-75
2022/07/21 02:26:12;;;;;;;7.80;4.20;;;17.80;99.90;;;;;;4974363;28;20035;-75
2022/07/21 02:28:38;;;;;;;8.65;4.07;;;17.70;99.90;;;;;;4974541;28;20543;-74
2022/07/21 02:31:04;;;;;;;11.80;4.35;;;17.70;99.90;;;;;;4974312;28;20114;-75
2022/07/21 02:33:30;;;;;;;7.13;3.97;;;17.60;99.90;;;;;;4974376;28;20085;-74
2022/07/21 02:35:56;;;;;;;6.10;3.78;;;17.60;99.90;;;;;;4972877;28;20106;-74
2022/07/21 02:38:22;;;;;;;6.30;3.80;;;17.50;99.90;;;;;;4974307;28;20050;-74
2022/07/21 02:40:47;;;;;;;4.78;3.78;;;17.50;99.90;;;;;;4973989;28;20015;-74
2022/07/21 02:43:13;;;;;;;6.45;3.65;;;17.40;99.90;;;;;;4974543;28;20066;-74
2022/07/21 02:45:41;;;;;;;6.38;3.22;;;17.40;99.90;;;;;;4974296;28;20018;-74
2022/07/21 02:48:09;;;;;;;6.57;4.00;;;17.30;99.90;;;;;;4974468;28;20054;-74
2022/07/21 02:50:39;;;;;;;5.57;3.30;;;17.30;99.90;;;;;;4974648;28;20050;-75
2022/07/21 02:53:08;;;;;;;8.73;4.63;;;17.30;99.90;;;;;;4973692;28;20492;-74
2022/07/21 02:55:35;;;;;;;5.32;3.47;;;17.20;99.90;;;;;;4989820;23;20089;-77
2022/07/21 02:58:09;;;;;;;5.65;2.85;;;17.10;99.90;;;;;;4972251;28;20058;-78
2022/07/21 03:00:38;;;;;;;4.00;3.05;;;17.00;99.90;;;;;;4973863;28;20472;-78
2022/07/21 03:03:04;;;;;;;11.48;3.13;;;17.00;99.90;;;;;;4974136;28;20022;-78
2022/07/21 03:05:31;;;;;;;11.05;3.20;;;17.00;99.90;;;;;;4973377;28;20026;-78
2022/07/21 03:07:57;;;;;;;4.15;3.00;;;16.90;99.90;;;;;;4973766;28;20610;-78
2022/07/21 03:10:24;;;;;;;5.68;2.95;;;16.80;99.90;;;;;;4973507;28;20018;-78
2022/07/21 03:12:50;;;;;;;4.85;2.90;;;16.80;99.90;;;;;;4973389;28;20033;-78
2022/07/21 03:15:15;;;;;;;9.35;3.10;;;16.70;99.90;;;;;;4973477;28;20023;-78
2022/07/21 03:17:41;;;;;;;4.82;3.40;;;16.60;99.90;;;;;;4973778;28;20022;-78
2022/07/21 03:20:07;;;;;;;7.65;3.10;;;16.50;99.90;;;;;;4973200;28;20044;-78
2022/07/21 03:22:33;;;;;;;7.80;2.88;;;16.50;99.90;;;;;;4973380;28;20027;-78
2022/07/21 03:24:59;;;;;;;3.20;2.63;;;16.50;99.90;;;;;;4973005;28;20105;-78
2022/07/21 03:27:25;;;;;;;8.32;2.67;;;16.50;99.90;;;;;;4973431;28;20030;-77
2022/07/21 03:29:51;;;;;;;7.57;3.13;;;16.50;99.90;;;;;;4973300;28;20015;-78
2022/07/21 03:32:17;;;;;;;6.45;2.65;;;16.50;99.90;;;;;;4973483;28;20031;-77
2022/07/21 03:34:45;;;;;;;5.85;2.67;;;16.50;99.90;;;;;;4973365;28;20057;-77
2022/07/21 03:37:11;;;;;;;4.80;2.70;;;16.50;99.90;;;;;;4972919;28;20030;-78
2022/07/21 03:39:37;;;;;;;5.25;2.67;;;16.60;99.90;;;;;;4973124;28;20476;-77
2022/07/21 03:42:03;;;;;;;4.28;2.90;;;16.60;99.90;;;;;;4973567;28;20058;-77
2022/07/21 03:44:28;;;;;;;5.78;2.85;;;16.70;99.90;;;;;;4971937;28;20030;-77
2022/07/21 03:46:54;;;;;;;3.33;2.13;;;16.80;99.90;;;;;;4973001;28;20023;-77
2022/07/21 03:49:20;;;;;;;4.90;2.67;;;16.80;99.90;;;;;;4973017;28;20070;-78
2022/07/21 03:51:45;;;;;;;3.72;2.58;;;16.80;99.90;;;;;;4972684;28;20673;-78
2022/07/21 03:56:49;;;;;;;4.85;2.38;;;16.90;99.90;;;;;;4970405;28;20102;-74
2022/07/21 03:59:14;;;;;;;5.00;3.28;;;16.80;99.90;;;;;;4972758;28;20023;-74
2022/07/21 04:01:40;;;;;;;3.70;2.28;;;16.80;99.90;;;;;;4972468;28;20029;-74
2022/07/21 04:04:06;;;;;;;6.80;2.55;;;16.80;99.90;;;;;;4972804;28;20061;-74
2022/07/21 04:06:32;;;;;;;2.63;2.00;;;16.70;99.90;;;;;;4972498;28;20022;-74
2022/07/21 04:08:58;;;;;;;4.57;2.20;;;16.70;99.90;;;;;;4972581;28;20162;-74
2022/07/21 04:11:23;;;;;;;2.95;1.98;;;16.80;99.90;;;;;;4972541;28;20031;-74
2022/07/21 04:13:49;;;;;;;4.35;1.83;;;16.80;99.90;;;;;;4971162;28;20027;-74
2022/07/21 04:16:15;;;;;;;4.38;1.98;;;16.80;99.90;;;;;;4971938;28;20019;-73
2022/07/21 04:18:41;;;;;;;3.55;1.85;;;16.80;99.90;;;;;;4972276;28;20031;-74
2022/07/21 04:21:06;;;;;;;6.10;2.20;;;16.80;99.90;;;;;;4972334;28;20027;-74
2022/07/21 04:23:32;;;;;;;2.28;1.60;;;16.80;99.90;;;;;;4972526;28;20019;-74
2022/07/21 04:25:58;;;;;;;4.80;1.88;;;16.80;99.90;;;;;;4972233;28;20027;-73
2022/07/21 04:28:24;;;;;;;5.40;2.17;;;16.80;99.90;;;;;;4972517;28;20041;-74
2022/07/21 04:30:50;;;;;;;2.28;1.50;;;16.80;99.90;;;;;;4972040;28;20027;-74
2022/07/21 04:33:15;;;;;;;3.28;1.67;;;16.80;99.90;;;;;;4971990;28;20035;-74
2022/07/21 04:35:41;;;;;;;3.85;1.70;;;16.70;99.90;;;;;;4971811;28;20022;-74
2022/07/21 04:38:09;;;;;;;3.08;1.30;;;16.70;99.90;;;;;;4972126;28;20105;-74
2022/07/21 04:40:35;;;;;;;4.90;1.88;;;16.60;99.90;;;;;;4970445;28;20051;-74
2022/07/21 04:43:01;;;;;;;4.72;1.67;;;16.70;99.90;;;;;;4972373;28;20595;-74
2022/07/21 04:45:27;;;;;;;3.33;1.42;;;16.60;99.90;;;;;;4971748;28;20018;-73
2022/07/21 04:47:54;;;;;;;7.28;1.90;;;16.60;99.90;;;;;;4970541;28;20030;-74
2022/07/21 04:50:23;;;;;;;2.78;1.95;;;16.60;99.90;;;;;;4971983;28;20027;-74
2022/07/21 04:52:50;;;;;;;3.88;1.95;;;16.70;99.90;;;;;;4971995;28;20085;-74
2022/07/21 04:55:16;;;;;;;2.58;1.50;;;16.70;99.90;;;;;;4994653;23;20069;-78
2022/07/21 04:57:45;;;;;;;1.98;1.40;;;16.70;99.90;;;;;;4972036;28;20033;-78
2022/07/21 05:00:14;;;;;;;2.28;1.70;;;16.70;99.90;;;;;;4971779;28;20062;-78
2022/07/21 05:02:40;;;;;;;3.05;1.33;;;16.80;99.90;;;;;;4971606;28;20027;-78
2022/07/21 05:05:07;;;;;;;4.28;1.90;;;16.90;99.90;;;;;;4971720;28;20575;-78
2022/07/21 05:07:33;;;;;;;2.92;1.85;;;16.90;99.90;;;;;;4971737;28;20050;-78
2022/07/21 05:09:59;;;;;;;5.57;1.60;;;17.00;99.90;;;;;;4970166;28;20354;-78
2022/07/21 05:12:25;;;;;;;2.25;1.60;;;17.00;99.90;;;;;;4971791;28;20101;-78
2022/07/21 05:14:52;;;;;;;3.85;1.38;;;17.10;99.90;;;;;;4971789;28;20018;-78
2022/07/21 05:17:17;;;;;;;3.50;1.67;;;17.10;99.90;;;;;;4971541;28;20031;-78
2022/07/21 05:19:45;;;;;;;6.07;1.50;;;17.10;99.90;;;;;;4970367;28;20354;-78
2022/07/21 05:22:11;;;;;;;4.78;1.60;;;17.20;99.90;;;;;;4971943;28;20019;-78
2022/07/21 05:24:37;;;;;;;3.13;1.33;;;17.20;99.90;;;;;;4971357;28;20032;-78
2022/07/21 05:27:03;;;;;;;3.58;1.35;;;17.20;99.90;;;;;;4971177;28;20027;-78
2022/07/21 05:29:28;;;;;;;7.25;1.52;;;17.30;99.90;;;;;;4974527;28;20030;-78
2022/07/21 05:31:54;;;;;;;3.42;1.52;;;17.30;99.90;;;;;;4975859;28;20023;-78
2022/07/21 05:34:20;;;;;;;3.33;1.63;;;17.30;99.90;;;;;;4975404;28;20046;-78
2022/07/21 05:36:45;;;;;;;4.78;1.45;;;17.20;99.90;;;;;;4975501;28;20653;-78
2022/07/21 05:39:11;;;;;;;6.20;1.77;;;17.20;99.90;;;;;;4975071;28;20384;-78
2022/07/21 05:41:37;;;;;;;3.13;1.70;;;17.10;99.90;;;;;;4974793;28;20491;-78
2022/07/21 05:44:03;;;;;;;1.67;1.33;;;17.10;99.90;;;;;;4975390;28;20031;-78
2022/07/21 05:46:28;;;;;;;4.40;1.73;;;17.10;99.90;;;;;;4974745;28;20026;-78
2022/07/21 05:48:54;;;;;;;3.92;1.63;;;17.10;99.90;;;;;;4975272;28;20499;-78
2022/07/21 05:51:20;;;;;;;2.28;1.75;;;17.20;99.90;;;;;;4975339;28;20480;-78
2022/07/21 05:53:46;;;;;;;3.95;1.52;;;17.20;99.90;;;;;;4977872;28;20046;-78
2022/07/21 05:56:12;;;;;;;3.92;1.67;;;17.30;99.90;;;;;;4973743;28;20515;-78
2022/07/21 05:58:38;;;;;;;4.43;1.58;;;17.30;99.90;;;;;;4975330;28;20081;-78
2022/07/21 06:01:13;;;;;;;2.22;1.40;;;17.30;99.90;;;;;;4975072;28;20046;-77
2022/07/21 06:03:50;;;;;;;1.73;1.30;;;17.20;99.90;;;;;;4974722;28;20054;-77
2022/07/21 06:06:18;;;;;;;3.42;1.70;;;17.30;99.90;;;;;;4974606;28;20051;-77
2022/07/21 06:08:46;;;;;;;4.00;1.60;;;17.30;99.90;;;;;;4974364;28;20019;-78
2022/07/21 06:11:15;;;;;;;3.78;1.40;;;17.30;99.90;;;;;;4968080;28;20114;-78
2022/07/21 06:13:42;;;;;;;2.35;1.33;;;17.30;99.90;;;;;;4974705;28;20031;-77
2022/07/21 06:16:08;;;;;;;1.77;1.40;;;17.30;99.90;;;;;;4974485;28;20026;-77
2022/07/21 06:18:34;;;;;;;3.60;1.83;;;17.40;99.90;;;;;;4973444;28;20023;-77
2022/07/21 06:21:00;;;;;;;5.10;1.55;;;17.40;99.90;;;;;;4974259;28;20034;-78
2022/07/21 06:23:26;;;;;;;2.60;1.20;;;17.40;99.90;;;;;;4978414;28;21212;-78
2022/07/21 06:25:53;;;;;;;5.53;1.27;;;17.40;99.90;;;;;;5002173;23;20482;-75
2022/07/21 06:28:20;;;;;;;4.88;1.40;;;17.50;99.90;;;;;;4974613;28;20391;-75
2022/07/21 06:30:46;;;;;;;3.03;1.50;;;17.50;99.90;;;;;;4974583;28;20110;-75
2022/07/21 06:33:12;;;;;;;2.67;1.30;;;17.40;99.90;;;;;;4974484;28;20799;-76
2022/07/21 06:35:39;;;;;;;4.65;1.80;;;17.40;99.90;;;;;;4974250;28;20039;-75
2022/07/21 06:38:04;;;;;;;2.25;1.38;;;17.50;99.90;;;;;;4973714;28;20090;-75
2022/07/21 06:40:31;;;;;;;1.77;1.30;;;17.60;99.90;;;;;;4973132;28;20011;-75
2022/07/21 06:42:57;;;;;;;4.40;1.75;;;17.70;99.90;;;;;;4974296;28;20357;-75
2022/07/21 06:45:24;;;;;;;3.50;2.08;;;17.90;99.90;;;;;;4973937;28;20023;-75
2022/07/21 06:47:50;;;;;;;3.35;1.65;;;18.00;99.90;;;;;;4973924;28;20038;-75
2022/07/21 06:50:16;;;;;;;2.75;1.25;;;18.20;99.90;;;;;;4974165;28;20042;-75
2022/07/21 06:52:42;;;;;;;6.78;1.30;;;18.30;99.90;;;;;;4973492;28;20086;-75
2022/07/21 06:55:08;;;;;;;2.45;1.42;;;18.50;99.90;;;;;;4973583;28;20599;-74
2022/07/21 06:57:35;;;;;;;2.28;1.60;;;18.70;99.90;;;;;;4974029;28;20029;-75
2022/07/21 07:00:05;;;;;;;2.72;1.30;;;18.90;99.90;;;;;;4972097;28;20027;-75
2022/07/21 07:02:30;;;;;;;2.20;1.08;;;18.90;99.90;;;;;;4973540;28;20049;-75
2022/07/21 07:04:56;;;;;;;1.60;1.30;;;19.10;99.90;;;;;;4973785;28;20524;-75
2022/07/21 07:07:22;;;;;;;2.78;1.15;;;19.20;99.90;;;;;;4973691;28;20027;-75
2022/07/21 07:09:48;;;;;;;3.47;1.50;;;19.30;99.90;;;;;;4972357;28;20047;-75
2022/07/21 07:12:14;;;;;;;2.70;1.23;;;19.30;99.90;;;;;;4972555;28;20038;-74
2022/07/21 07:14:40;;;;;;;3.67;2.03;;;19.40;99.90;;;;;;4973507;28;20139;-75
2022/07/21 07:17:06;;;;;;;5.13;1.60;;;19.50;99.90;;;;;;4973364;28;20110;-75
2022/07/21 07:19:32;;;;;;;2.42;1.30;;;19.60;99.90;;;;;;4966894;28;20645;-75
2022/07/21 07:21:58;;;;;;;4.78;1.92;;;19.80;99.90;;;;;;4972561;28;20031;-75
2022/07/21 07:24:24;;;;;;;4.65;1.90;;;20.00;99.90;;;;;;4972588;28;20137;-75
2022/07/21 07:26:50;;;;;;;1.80;1.30;;;20.20;99.90;;;;;;4973273;28;20102;-75
2022/07/21 07:29:16;;;;;;;2.15;1.40;;;20.40;99.90;;;;;;4973294;28;20045;-75
2022/07/21 07:31:41;;;;;;;1.50;1.25;;;20.50;99.90;;;;;;4972967;28;20031;-75
2022/07/21 07:34:09;;;;;;;3.22;1.40;;;20.70;99.90;;;;;;4974311;28;20038;-75
2022/07/21 07:36:35;;;;;;;2.42;1.10;;;20.90;99.90;;;;;;4972805;28;20060;-76
2022/07/21 07:39:02;;;;;;;3.55;1.40;;;20.90;99.90;;;;;;4975950;28;20042;-75
2022/07/21 07:41:29;;;;;;;5.72;2.25;;;20.80;99.90;;;;;;4972975;28;20408;-75
2022/07/21 07:43:55;;;;;;;3.28;1.02;;;20.90;99.90;;;;;;4972738;28;20037;-76
2022/07/21 07:46:21;;;;;;;3.40;1.30;;;20.90;99.90;;;;;;4972277;28;20073;-75
2022/07/21 07:48:47;;;;;;;2.45;1.52;;;20.90;99.90;;;;;;4971699;28;20023;-75
2022/07/21 07:51:13;;;;;;;2.45;1.80;;;21.10;99.90;;;;;;4972331;28;20093;-76
2022/07/21 07:53:39;;;;;;;7.68;1.75;;;21.00;99.90;;;;;;4971768;28;20495;-76
2022/07/21 07:56:06;;;;;;;2.83;1.52;;;20.90;99.90;;;;;;5007336;23;20570;-80
2022/07/21 07:58:32;;;;;;;2.97;1.92;;;20.80;99.90;;;;;;4991943;28;20022;-80
2022/07/21 08:00:58;;;;;;;3.33;1.75;;;20.80;99.90;;;;;;4990425;28;20022;-79
2022/07/21 08:03:26;;;;;;;2.90;1.67;;;20.70;99.90;;;;;;4991013;28;20022;-79
2022/07/21 08:05:59;;;;;;;5.07;1.50;;;20.70;99.90;;;;;;4980256;28;20026;-79
2022/07/21 08:08:25;;;;;;;5.50;1.90;;;20.60;99.90;;;;;;4972763;28;20023;-79
2022/07/21 08:10:51;;;;;;;5.97;1.52;;;20.60;99.90;;;;;;4971490;28;20023;-79
2022/07/21 08:13:17;;;;;;;2.75;1.40;;;20.60;99.90;;;;;;4972744;28;20085;-79
2022/07/21 08:15:45;;;;;;;5.72;1.63;;;20.60;99.90;;;;;;4972740;28;20361;-79
2022/07/21 08:18:11;;;;;;;6.18;1.80;;;20.80;99.90;;;;;;4972585;28;20019;-79
2022/07/21 08:20:37;;;;;;;4.45;1.27;;;21.00;99.90;;;;;;4972598;28;20021;-80
2022/07/21 08:23:03;;;;;;;3.25;1.50;;;21.20;99.90;;;;;;4964302;28;20031;-79
2022/07/21 08:25:29;;;;;;;6.70;2.10;;;21.30;99.90;;;;;;4970096;28;20050;-79
2022/07/21 08:27:55;;;;;;;3.53;1.85;;;21.30;99.90;;;;;;4966766;28;20539;-78
2022/07/21 08:30:21;;;;;;;4.07;1.60;;;21.40;99.90;;;;;;4971121;28;20106;-79
2022/07/21 08:32:47;;;;;;;3.92;2.13;;;21.50;99.90;;;;;;4971981;28;20488;-80
2022/07/21 08:35:12;;;;;;;4.50;2.25;;;21.70;99.90;;;;;;4970338;28;20031;-80
2022/07/21 08:37:39;;;;;;;8.38;2.30;;;21.90;99.90;;;;;;4972199;28;20025;-80
2022/07/21 08:40:07;;;;;;;3.63;2.00;;;22.30;99.90;;;;;;4971634;28;20061;-79
2022/07/21 08:42:34;;;;;;;6.63;2.20;;;22.60;97.10;;;;;;4970804;28;20467;-80
2022/07/21 08:44:59;;;;;;;4.22;1.88;;;22.80;98.40;;;;;;4970996;28;20688;-79
2022/07/21 08:47:26;;;;;;;3.63;2.33;;;22.90;99.90;;;;;;4971038;28;20023;-80
2022/07/21 08:49:53;;;;;;;5.60;2.47;;;23.40;94.30;;;;;;4972021;28;20031;-80
2022/07/21 08:52:19;;;;;;;2.17;1.20;;;24.30;92.10;;;;;;4975258;28;20034;-79
2022/07/21 08:54:44;;;;;;;4.22;1.65;;;25.10;88.00;;;;;;4970077;28;20030;-79
2022/07/21 08:57:11;;;;;;;4.15;1.45;;;25.90;72.10;;;;;;4970663;28;20165;-80
2022/07/21 08:59:37;;;;;;;5.25;1.67;;;26.60;68.90;;;;;;4971961;28;20077;-79
2022/07/21 09:02:04;;;;;;;3.05;1.40;;;27.40;65.20;;;;;;4973723;28;20023;-80
2022/07/21 09:04:33;;;;;;;2.35;1.52;;;27.50;59.50;;;;;;4970901;28;20035;-79
2022/07/21 09:07:02;;;;;;;3.55;1.70;;;27.90;60.40;;;;;;4971914;28;20021;-79
2022/07/21 09:09:30;;;;;;;7.65;1.52;;;28.50;57.50;;;;;;4971686;28;20023;-80
2022/07/21 09:11:56;;;;;;;3.63;1.70;;;29.30;54.90;;;;;;4976941;28;20492;-79
2022/07/21 09:14:29;;;;;;;5.32;1.48;;;29.70;52.60;;;;;;4970274;28;20404;-80
2022/07/21 09:17:00;;;;;;;5.03;1.83;;;30.10;50.30;;;;;;4970593;28;20440;-79
2022/07/21 09:19:27;;;;;;;;;;;30.50;52.20;;;;;;4970968;28;20019;-80
2022/07/21 09:21:56;;;;;;;5.65;1.92;;;30.70;47.10;;;;;;4970699;28;19992;-80
2022/07/21 09:24:34;;;;;;;2.90;0.95;;;30.40;46.70;;;;;;4971436;28;20408;-80
2022/07/21 09:27:02;;;;;;;3.17;1.52;;;30.80;46.80;;;;;;4971495;28;20033;-80
2022/07/21 09:29:35;;;;;;;3.20;1.67;;;30.50;46.70;;;;;;4965003;28;20670;-80
2022/07/21 09:32:17;;;;;;;2.05;1.02;;;31.00;46.80;;;;;;4973717;28;20508;-80
2022/07/21 09:34:44;;;;;;;3.55;1.55;;;32.10;46.00;;;;;;4970663;28;20034;-80
2022/07/21 09:37:10;;;;;;;4.45;1.45;;;31.90;45.60;;;;;;4973589;28;20031;-80
2022/07/21 09:39:51;;;;;;;3.95;1.40;;;32.80;41.70;;;;;;4969517;28;20499;-79
2022/07/21 09:42:16;;;;;;;2.38;1.40;;;32.80;42.50;;;;;;4965280;28;20019;-77
2022/07/21 09:44:49;;;;;;;3.65;1.20;;;33.40;40.50;;;;;;4976074;28;20030;-77
2022/07/21 09:47:17;;;;;;;3.78;1.48;;;34.20;41.40;;;;;;4971150;28;20023;-79
2022/07/21 09:49:43;;;;;;;3.47;1.70;;;34.00;39.50;;;;;;4971455;28;20090;-80
2022/07/21 09:52:31;;;;;;;2.85;1.17;;;34.10;38.90;;;;;;4962818;28;20170;-80
2022/07/21 09:55:09;;;;;;;3.05;1.55;;;34.10;38.60;;;;;;4973258;28;20125;-80
2022/07/21 09:57:36;;;;;;;2.65;1.20;;;34.00;37.00;;;;;;4980459;28;20027;-80
2022/07/21 10:00:05;;;;;;;4.30;1.38;;;33.30;40.80;;;;;;4973179;28;20105;-79
2022/07/21 10:02:32;;;;;;;4.13;1.40;;;33.30;39.90;;;;;;4971481;28;20026;-80
2022/07/21 10:04:59;;;;;;;1.70;1.20;;;32.60;40.30;;;;;;4980102;28;20026;-80
2022/07/21 10:07:27;;;;;;;1.90;1.13;;;32.60;43.20;;;;;;4977746;28;20102;-80
2022/07/21 10:09:53;;;;;;;6.93;1.85;;;33.60;41.30;;;;;;4977694;28;20027;-80
2022/07/21 10:12:20;;;;;;;2.85;1.65;;;34.00;37.40;;;;;;4977390;28;20484;-80
2022/07/21 10:14:46;;;;;;;2.33;1.38;;;33.80;40.80;;;;;;4974239;28;20076;-80
2022/07/21 10:17:17;;;;;;;2.95;1.50;;;35.50;38.90;;;;;;4974606;28;20026;-80
2022/07/21 10:20:35;;;;;;;3.10;1.35;;;36.40;35.50;;;;;;4974468;28;20015;-80
2022/07/21 10:23:03;;;;;;;4.60;1.50;;;36.60;33.40;;;;;;4941425;28;20093;-80
2022/07/21 10:25:30;;;;;;;5.82;1.75;;;35.10;34.90;;;;;;4973619;28;20019;-80
2022/07/21 10:28:27;;;;;;;5.82;1.85;;;34.70;37.30;;;;;;4974243;28;20019;-80
2022/07/21 10:30:55;;;;;;;4.00;1.70;;;35.10;34.20;;;;;;4973558;28;20058;-80
2022/07/21 10:33:41;;;;;;;3.60;1.70;;;34.60;37.20;;;;;;4973691;28;20031;-79
2022/07/21 10:36:07;;;;;;;4.65;1.50;;;33.10;37.80;;;;;;4986830;28;20031;-79
2022/07/21 10:38:35;;;;;;;2.50;1.98;;;32.50;40.40;;;;;;4973525;28;20018;-78
2022/07/21 10:41:03;;;;;;;3.10;2.00;;;32.60;41.70;;;;;;4972907;28;20026;-78
2022/07/21 10:43:29;;;;;;;5.85;2.00;;;32.80;40.10;;;;;;4973001;28;20466;-78
2022/07/21 10:45:57;;;;;;;3.47;2.05;;;33.20;39.70;;;;;;4966945;28;20091;-79
2022/07/21 10:48:38;;;;;;;4.22;1.88;;;33.90;37.80;;;;;;4973299;28;20030;-79
2022/07/21 10:51:07;;;;;;;4.55;1.50;;;34.70;39.10;;;;;;4973689;28;20031;-79
2022/07/21 10:53:33;;;;;;;6.45;1.80;;;35.90;36.40;;;;;;4972767;28;20041;-79
2022/07/21 10:55:59;;;;;;;3.92;1.80;;;36.40;34.20;;;;;;4973700;28;20035;-79
2022/07/21 10:58:27;;;;;;;1.80;1.45;;;35.70;34.00;;;;;;4973723;28;20034;-79
2022/07/21 11:00:55;;;;;;;3.17;1.80;;;36.00;33.90;;;;;;4969096;28;20021;-79
2022/07/21 11:03:34;;;;;;;5.25;1.60;;;35.80;34.40;;;;;;4972309;28;20019;-79
2022/07/21 11:06:06;;;;;;;3.10;1.48;;;36.10;34.00;;;;;;4967214;28;20691;-79
2022/07/21 11:08:45;;;;;;;3.75;1.80;;;36.60;32.80;;;;;;4971993;28;20022;-78
2022/07/21 11:11:16;;;;;;;4.03;1.50;;;35.70;32.00;;;;;;4974190;28;20105;-79
2022/07/21 11:14:14;;;;;;;3.80;1.70;;;35.00;33.90;;;;;;4973592;28;20437;-79
2022/07/21 11:16:49;;;;;;;1.40;1.25;;;34.30;35.60;;;;;;4978102;28;20023;-78
2022/07/21 11:19:37;;;;;;;2.58;1.60;;;33.80;35.60;;;;;;4973949;28;20382;-79
2022/07/21 11:22:26;;;;;;;2.78;1.40;;;33.40;37.30;;;;;;4973814;28;20111;-79
2022/07/21 11:24:56;;;;;;;2.25;1.80;;;32.70;38.90;;;;;;4980814;28;20030;-80
2022/07/21 11:27:25;;;;;;;6.17;2.00;;;32.20;40.10;;;;;;4973538;28;20101;-79
2022/07/21 11:29:58;;;;;;;3.08;2.10;;;31.30;42.40;;;;;;4972741;28;20019;-78
2022/07/21 11:32:24;;;;;;;2.83;1.73;;;31.30;42.70;;;;;;4972995;28;20034;-78
2022/07/21 11:34:56;;;;;;;3.10;1.50;;;31.10;44.20;;;;;;4970745;28;20019;-78
2022/07/21 11:37:35;;;;;;;4.43;1.90;;;31.50;43.50;;;;;;4976438;28;20423;-78
2022/07/21 11:40:03;;;;;;;4.45;1.95;;;31.80;42.20;;;;;;4971474;28;20042;-79
2022/07/21 11:42:30;;;;;;;3.35;1.50;;;32.50;42.00;;;;;;4973476;28;20019;-79
2022/07/21 11:44:56;;;;;;;2.78;1.77;;;34.10;41.70;;;;;;4973519;28;20031;-80
2022/07/21 11:47:25;;;;;;;1.63;1.40;;;35.60;34.80;;;;;;4972414;28;20085;-79
2022/07/21 11:49:54;;;;;;;2.83;1.80;;;36.30;36.20;;;;;;4973156;28;20019;-80
2022/07/21 11:52:25;;;;;;;2.58;1.65;;;37.60;35.30;;;;;;4972530;28;20050;-80
2022/07/21 11:54:52;;;;;;;3.20;1.73;;;38.00;31.70;;;;;;4971643;28;20030;-80
2022/07/21 11:57:21;;;;;;;4.03;1.60;;;36.50;31.80;;;;;;4972815;28;20098;-80
2022/07/21 11:59:48;;;;;;;2.63;1.48;;;35.00;34.20;;;;;;4972822;28;20563;-80
2022/07/21 12:02:20;;;;;;;3.40;1.55;;;35.10;36.60;;;;;;4970438;28;20051;-80
2022/07/21 12:04:50;;;;;;;4.13;1.90;;;34.70;36.10;;;;;;4972692;28;20019;-80
2022/07/21 12:07:20;;;;;;;2.27;1.83;;;33.40;37.50;;;;;;4971948;28;20027;-78
2022/07/21 12:09:50;;;;;;;2.83;1.85;;;32.80;38.60;;;;;;4971057;28;20267;-78
2022/07/21 12:12:49;;;;;;;3.30;2.08;;;31.50;41.20;;;;;;4970902;28;20551;-79
2022/07/21 12:15:20;;;;;;;4.45;1.90;;;29.90;43.90;;;;;;4969796;28;20098;-79
2022/07/21 12:17:52;;;;;;;2.50;1.70;;;29.10;47.90;;;;;;4971195;28;20066;-79
2022/07/21 12:20:44;;;;;;;4.93;1.90;;;28.90;50.90;;;;;;4974675;28;20066;-81
2022/07/21 12:23:26;;;;;;;3.85;1.95;;;28.80;49.50;;;;;;4969420;28;20085;-81
2022/07/21 12:25:53;;;;;;;5.55;2.08;;;28.70;50.70;;;;;;4972158;28;20023;-80
2022/07/21 12:28:19;;;;;;;2.97;1.70;;;28.90;51.40;;;;;;4971756;28;20015;-81
2022/07/21 12:30:50;;;;;;;5.00;2.08;;;29.30;50.50;;;;;;4972215;28;20023;-82
2022/07/21 12:33:20;;;;;;;3.67;1.52;;;29.20;48.90;;;;;;4970722;28;20037;-82
2022/07/21 12:36:00;;;;;;;2.65;1.85;;;29.30;48.90;;;;;;4970743;28;20021;-82
2022/07/21 12:38:43;;;;;;;6.38;2.03;;;29.10;51.30;;;;;;4971802;28;20051;-82
2022/07/21 12:41:12;;;;;;;3.15;1.65;;;29.00;52.20;;;;;;4975926;28;20399;-81
2022/07/21 12:43:38;;;;;;;3.50;1.85;;;28.80;50.30;;;;;;4972872;28;20019;-80
2022/07/21 12:46:14;;;;;;;4.93;1.52;;;28.70;51.10;;;;;;4971877;28;20027;-82
2022/07/21 12:48:41;;;;;;;5.45;1.98;;;28.50;51.60;;;;;;4973644;28;20062;-80
2022/07/21 12:51:23;;;;;;;6.25;2.13;;;28.30;51.50;;;;;;4972599;28;20393;-82
2022/07/21 12:53:54;;;;;;;3.58;2.00;;;28.30;52.60;;;;;;4971434;28;20077;-77
2022/07/21 12:56:29;;;;;;;4.93;2.33;;;28.50;53.20;;;;;;4996748;23;20054;-76
2022/07/21 12:58:56;;;;;;;4.65;1.85;;;29.00;51.10;;;;;;4991414;28;20018;-76